sensor_id;sensor_type;location;lat;lon;timestamp;pressure;altitude;pressure_sealevel;temperature;humidity
38022;BME280;23832;43.216;27.946;2023-04-12T00:02:01;99381.75;;;13.82;100.00
38022;BME280;23832;43.216;27.946;2023-04-12T00:04:03;99384.22;;;13.84;100.00
38022;BME280;23832;43.216;27.946;2023-04-12T00:06:05;99381.94;;;13.69;100.00
38022;BME280;23832;43.216;27.946;2023-04-12T00:08:08;99384.28;;;13.77;100.00
38022;BME280;23832;43.216;27.946;2023-04-12T00:10:09;99382.75;;;13.70;100.00
38022;BME280;23832;43.216;27.946;2023-04-12T00:12:11;99384.50;;;13.76;100.00
38022;BME280;23832;43.216;27.946;2023-04-12T00:14:13;99378.31;;;13.82;100.00
38022;BME280;23832;43.216;27.946;2023-04-12T00:16:15;99376.03;;;13.85;100.00
38022;BME280;23832;43.216;27.946;2023-04-12T00:18:17;99381.09;;;13.87;100.00
38022;BME280;23832;43.216;27.946;2023-04-12T00:20:18;99374.72;;;13.76;100.00
38022;BME280;23832;43.216;27.946;2023-04-12T00:22:20;99372.44;;;13.80;100.00
38022;BME280;23832;43.216;27.946;2023-04-12T00:24:23;99374.13;;;13.74;100.00
38022;BME280;23832;43.216;27.946;2023-04-12T00:26:25;99377.91;;;13.67;100.00
38022;BME280;23832;43.216;27.946;2023-04-12T00:28:27;99374.50;;;13.78;100.00
38022;BME280;23832;43.216;27.946;2023-04-12T00:30:29;99376.03;;;13.85;100.00
38022;BME280;23832;43.216;27.946;2023-04-12T00:32:30;99370.28;;;13.88;100.00
38022;BME280;23832;43.216;27.946;2023-04-12T00:34:32;99371.06;;;13.89;100.00
38022;BME280;23832;43.216;27.946;2023-04-12T00:36:34;99368.25;;;13.72;100.00
38022;BME280;23832;43.216;27.946;2023-04-12T00:38:35;99378.19;;;13.77;100.00
38022;BME280;23832;43.216;27.946;2023-04-12T00:40:41;99373.00;;;13.82;100.00
38022;BME280;23832;43.216;27.946;2023-04-12T00:42:42;99383.84;;;13.62;100.00
38022;BME280;23832;43.216;27.946;2023-04-12T00:44:44;99376.94;;;13.61;100.00
38022;BME280;23832;43.216;27.946;2023-04-12T00:46:46;99376.50;;;13.46;100.00
38022;BME280;23832;43.216;27.946;2023-04-12T00:48:48;99369.84;;;13.43;100.00
38022;BME280;23832;43.216;27.946;2023-04-12T00:50:50;99374.78;;;13.21;100.00
38022;BME280;23832;43.216;27.946;2023-04-12T00:52:54;99382.09;;;13.56;100.00
38022;BME280;23832;43.216;27.946;2023-04-12T00:54:57;99371.72;;;13.54;100.00
38022;BME280;23832;43.216;27.946;2023-04-12T00:57:01;99376.00;;;13.55;100.00
38022;BME280;23832;43.216;27.946;2023-04-12T00:59:03;99375.47;;;13.65;100.00
38022;BME280;23832;43.216;27.946;2023-04-12T01:01:05;99378.06;;;13.53;100.00
38022;BME280;23832;43.216;27.946;2023-04-12T01:03:09;99372.84;;;13.47;100.00
38022;BME280;23832;43.216;27.946;2023-04-12T01:05:12;99367.25;;;13.55;100.00
38022;BME280;23832;43.216;27.946;2023-04-12T01:07:22;99371.06;;;13.59;100.00
38022;BME280;23832;43.216;27.946;2023-04-12T01:09:26;99378.34;;;13.63;100.00
38022;BME280;23832;43.216;27.946;2023-04-12T01:11:35;99370.00;;;13.48;100.00
38022;BME280;23832;43.216;27.946;2023-04-12T01:13:40;99370.38;;;13.63;100.00
38022;BME280;23832;43.216;27.946;2023-04-12T01:15:47;99365.59;;;13.72;100.00
38022;BME280;23832;43.216;27.946;2023-04-12T01:17:55;99365.28;;;13.50;100.00
38022;BME280;23832;43.216;27.946;2023-04-12T01:20:00;99369.16;;;13.48;100.00
38022;BME280;23832;43.216;27.946;2023-04-12T01:22:15;99361.22;;;13.66;100.00
38022;BME280;23832;43.216;27.946;2023-04-12T01:24:22;99363.97;;;13.41;100.00
38022;BME280;23832;43.216;27.946;2023-04-12T01:26:32;99366.91;;;13.33;100.00
38022;BME280;23832;43.216;27.946;2023-04-12T01:28:40;99366.50;;;13.48;100.00
38022;BME280;23832;43.216;27.946;2023-04-12T01:30:42;99363.06;;;13.47;100.00
38022;BME280;23832;43.216;27.946;2023-04-12T01:32:47;99371.31;;;13.57;100.00
38022;BME280;23832;43.216;27.946;2023-04-12T01:34:50;99361.09;;;13.73;100.00
38022;BME280;23832;43.216;27.946;2023-04-12T01:36:54;99362.44;;;13.63;100.00
38022;BME280;23832;43.216;27.946;2023-04-12T01:38:56;99359.19;;;13.50;100.00
38022;BME280;23832;43.216;27.946;2023-04-12T01:40:58;99352.03;;;13.50;100.00
38022;BME280;23832;43.216;27.946;2023-04-12T01:43:04;99353.94;;;13.43;100.00
38022;BME280;23832;43.216;27.946;2023-04-12T01:45:08;99345.72;;;13.33;100.00
38022;BME280;23832;43.216;27.946;2023-04-12T01:47:10;99348.72;;;13.37;100.00
38022;BME280;23832;43.216;27.946;2023-04-12T01:49:12;99349.81;;;13.29;100.00
38022;BME280;23832;43.216;27.946;2023-04-12T01:51:15;99353.94;;;13.43;100.00
38022;BME280;23832;43.216;27.946;2023-04-12T01:53:20;99348.94;;;13.53;100.00
38022;BME280;23832;43.216;27.946;2023-04-12T01:55:23;99353.88;;;13.50;100.00
38022;BME280;23832;43.216;27.946;2023-04-12T01:57:26;99347.91;;;13.54;100.00
38022;BME280;23832;43.216;27.946;2023-04-12T01:59:29;99356.00;;;13.59;100.00
38022;BME280;23832;43.216;27.946;2023-04-12T02:01:33;99346.38;;;13.28;100.00
38022;BME280;23832;43.216;27.946;2023-04-12T02:03:36;99359.25;;;13.43;100.00
38022;BME280;23832;43.216;27.946;2023-04-12T02:05:37;99347.84;;;13.43;100.00
38022;BME280;23832;43.216;27.946;2023-04-12T02:07:40;99348.66;;;13.43;100.00
38022;BME280;23832;43.216;27.946;2023-04-12T02:09:42;99352.41;;;13.35;100.00
38022;BME280;23832;43.216;27.946;2023-04-12T02:11:45;99351.97;;;13.20;100.00
38022;BME280;23832;43.216;27.946;2023-04-12T02:13:47;99362.06;;;13.30;100.00
38022;BME280;23832;43.216;27.946;2023-04-12T02:15:49;99359.41;;;13.48;100.00
38022;BME280;23832;43.216;27.946;2023-04-12T02:17:55;99355.84;;;13.54;100.00
38022;BME280;23832;43.216;27.946;2023-04-12T02:19:58;99361.53;;;13.40;100.00
38022;BME280;23832;43.216;27.946;2023-04-12T02:22:00;99358.94;;;13.15;100.00
38022;BME280;23832;43.216;27.946;2023-04-12T02:24:03;99362.34;;;13.22;100.00
38022;BME280;23832;43.216;27.946;2023-04-12T02:26:05;99355.28;;;13.34;100.00
38022;BME280;23832;43.216;27.946;2023-04-12T02:28:07;99356.31;;;13.33;100.00
38022;BME280;23832;43.216;27.946;2023-04-12T02:30:09;99355.72;;;13.31;100.00
38022;BME280;23832;43.216;27.946;2023-04-12T02:32:11;99355.78;;;13.43;100.00
38022;BME280;23832;43.216;27.946;2023-04-12T02:34:16;99362.25;;;13.47;100.00
38022;BME280;23832;43.216;27.946;2023-04-12T02:36:18;99363.16;;;13.41;100.00
38022;BME280;23832;43.216;27.946;2023-04-12T02:38:20;99357.44;;;13.55;100.00
38022;BME280;23832;43.216;27.946;2023-04-12T02:40:21;99360.28;;;13.42;100.00
38022;BME280;23832;43.216;27.946;2023-04-12T02:42:23;99362.06;;;13.30;100.00
38022;BME280;23832;43.216;27.946;2023-04-12T02:44:25;99361.81;;;13.13;100.00
38022;BME280;23832;43.216;27.946;2023-04-12T02:46:29;99352.06;;;13.32;100.00
38022;BME280;23832;43.216;27.946;2023-04-12T02:48:31;99349.50;;;13.19;100.00
38022;BME280;23832;43.216;27.946;2023-04-12T02:50:35;99349.94;;;13.22;100.00
38022;BME280;23832;43.216;27.946;2023-04-12T02:52:37;99356.66;;;13.18;100.00
38022;BME280;23832;43.216;27.946;2023-04-12T02:54:39;99350.88;;;13.28;100.00
38022;BME280;23832;43.216;27.946;2023-04-12T02:56:40;99350.16;;;13.39;100.00
38022;BME280;23832;43.216;27.946;2023-04-12T02:58:42;99345.13;;;13.49;100.00
38022;BME280;23832;43.216;27.946;2023-04-12T03:00:44;99344.25;;;13.37;100.00
38022;BME280;23832;43.216;27.946;2023-04-12T03:02:47;99346.59;;;13.27;100.00
38022;BME280;23832;43.216;27.946;2023-04-12T03:04:50;99345.22;;;13.24;100.00
38022;BME280;23832;43.216;27.946;2023-04-12T03:06:53;99350.44;;;13.31;100.00
38022;BME280;23832;43.216;27.946;2023-04-12T03:08:55;99346.88;;;13.37;100.00
38022;BME280;23832;43.216;27.946;2023-04-12T03:10:58;99348.88;;;13.42;100.00
38022;BME280;23832;43.216;27.946;2023-04-12T03:13:00;99353.16;;;13.43;100.00
38022;BME280;23832;43.216;27.946;2023-04-12T03:15:01;99358.72;;;13.34;100.00
38022;BME280;23832;43.216;27.946;2023-04-12T03:17:03;99361.31;;;13.23;100.00
38022;BME280;23832;43.216;27.946;2023-04-12T03:19:04;99353.38;;;13.41;100.00
38022;BME280;23832;43.216;27.946;2023-04-12T03:21:06;99358.88;;;13.40;100.00
38022;BME280;23832;43.216;27.946;2023-04-12T03:23:09;99353.09;;;13.31;100.00
38022;BME280;23832;43.216;27.946;2023-04-12T03:25:11;99361.31;;;13.23;100.00
38022;BME280;23832;43.216;27.946;2023-04-12T03:27:13;99361.13;;;13.18;100.00
38022;BME280;23832;43.216;27.946;2023-04-12T03:29:15;99363.75;;;13.24;100.00
38022;BME280;23832;43.216;27.946;2023-04-12T03:31:17;99357.47;;;13.37;100.00
38022;BME280;23832;43.216;27.946;2023-04-12T03:33:20;99357.63;;;13.24;100.00
38022;BME280;23832;43.216;27.946;2023-04-12T03:35:22;99360.06;;;13.25;100.00
38022;BME280;23832;43.216;27.946;2023-04-12T03:37:23;99351.75;;;13.40;100.00
38022;BME280;23832;43.216;27.946;2023-04-12T03:39:26;99356.53;;;13.31;100.00
38022;BME280;23832;43.216;27.946;2023-04-12T03:41:28;99355.78;;;13.43;100.00
38022;BME280;23832;43.216;27.946;2023-04-12T03:43:30;99356.53;;;13.50;100.00
38022;BME280;23832;43.216;27.946;2023-04-12T03:45:35;99356.66;;;13.37;100.00
38022;BME280;23832;43.216;27.946;2023-04-12T03:47:36;99353.66;;;13.33;100.00
38022;BME280;23832;43.216;27.946;2023-04-12T03:49:38;99359.09;;;13.38;100.00
38022;BME280;23832;43.216;27.946;2023-04-12T03:51:40;99360.56;;;13.34;100.00
38022;BME280;23832;43.216;27.946;2023-04-12T03:53:42;99359.19;;;13.50;100.00
38022;BME280;23832;43.216;27.946;2023-04-12T03:55:45;99352.91;;;13.44;100.00
38022;BME280;23832;43.216;27.946;2023-04-12T03:57:47;99359.59;;;13.47;100.00
38022;BME280;23832;43.216;27.946;2023-04-12T03:59:49;99359.41;;;13.48;100.00
38022;BME280;23832;43.216;27.946;2023-04-12T04:01:51;99366.53;;;13.29;100.00
38022;BME280;23832;43.216;27.946;2023-04-12T04:03:53;99366.88;;;13.51;100.00
38022;BME280;23832;43.216;27.946;2023-04-12T04:05:54;99364.34;;;13.75;100.00
38022;BME280;23832;43.216;27.946;2023-04-12T04:07:56;99362.28;;;13.77;100.00
38022;BME280;23832;43.216;27.946;2023-04-12T04:10:01;99359.94;;;13.69;100.00
38022;BME280;23832;43.216;27.946;2023-04-12T04:12:06;99354.72;;;13.62;100.00
38022;BME280;23832;43.216;27.946;2023-04-12T04:14:08;99354.00;;;13.55;100.00
38022;BME280;23832;43.216;27.946;2023-04-12T04:16:10;99350.31;;;13.56;100.00
38022;BME280;23832;43.216;27.946;2023-04-12T04:18:13;99363.19;;;13.71;100.00
38022;BME280;23832;43.216;27.946;2023-04-12T04:20:14;99357.34;;;13.50;100.00
38022;BME280;23832;43.216;27.946;2023-04-12T04:22:17;99362.72;;;13.74;100.00
38022;BME280;23832;43.216;27.946;2023-04-12T04:24:20;99362.31;;;13.58;100.00
38022;BME280;23832;43.216;27.946;2023-04-12T04:26:24;99368.19;;;13.60;100.00
38022;BME280;23832;43.216;27.946;2023-04-12T04:28:33;99366.72;;;13.64;100.00
38022;BME280;23832;43.216;27.946;2023-04-12T04:30:36;99371.47;;;13.74;100.00
38022;BME280;23832;43.216;27.946;2023-04-12T04:32:39;99362.63;;;13.80;100.00
38022;BME280;23832;43.216;27.946;2023-04-12T04:34:42;99368.75;;;13.81;100.00
38022;BME280;23832;43.216;27.946;2023-04-12T04:36:43;99360.94;;;13.86;100.00
38022;BME280;23832;43.216;27.946;2023-04-12T04:38:45;99367.41;;;13.90;100.00
38022;BME280;23832;43.216;27.946;2023-04-12T04:40:49;99365.72;;;14.07;100.00
38022;BME280;23832;43.216;27.946;2023-04-12T04:42:52;99378.22;;;13.88;100.00
38022;BME280;23832;43.216;27.946;2023-04-12T04:44:56;99375.41;;;13.83;100.00
38022;BME280;23832;43.216;27.946;2023-04-12T04:47:03;99387.69;;;13.96;100.00
38022;BME280;23832;43.216;27.946;2023-04-12T04:49:06;99378.00;;;13.90;100.00
38022;BME280;23832;43.216;27.946;2023-04-12T04:51:07;99372.88;;;14.07;100.00
38022;BME280;23832;43.216;27.946;2023-04-12T04:53:09;99374.94;;;14.05;100.00
38022;BME280;23832;43.216;27.946;2023-04-12T04:55:10;99376.72;;;14.23;100.00
38022;BME280;23832;43.216;27.946;2023-04-12T04:57:12;99373.59;;;14.14;100.00
38022;BME280;23832;43.216;27.946;2023-04-12T04:59:14;99381.50;;;14.02;100.00
38022;BME280;23832;43.216;27.946;2023-04-12T05:01:18;99381.38;;;13.97;100.00
38022;BME280;23832;43.216;27.946;2023-04-12T05:03:20;99380.94;;;13.82;100.00
38022;BME280;23832;43.216;27.946;2023-04-12T05:05:21;99381.06;;;14.05;100.00
38022;BME280;23832;43.216;27.946;2023-04-12T05:07:25;99376.47;;;14.12;100.00
38022;BME280;23832;43.216;27.946;2023-04-12T05:09:26;99373.50;;;14.20;100.00
38022;BME280;23832;43.216;27.946;2023-04-12T05:11:28;99375.44;;;14.25;100.00
38022;BME280;23832;43.216;27.946;2023-04-12T05:13:30;99379.75;;;14.38;100.00
38022;BME280;23832;43.216;27.946;2023-04-12T05:15:32;99382.97;;;14.40;100.00
38022;BME280;23832;43.216;27.946;2023-04-12T05:17:35;99377.78;;;14.33;100.00
38022;BME280;23832;43.216;27.946;2023-04-12T05:19:37;99371.41;;;14.23;100.00
38022;BME280;23832;43.216;27.946;2023-04-12T05:21:39;99372.38;;;14.40;100.00
38022;BME280;23832;43.216;27.946;2023-04-12T05:23:41;99378.41;;;14.47;100.00
38022;BME280;23832;43.216;27.946;2023-04-12T05:25:44;99373.13;;;14.47;100.00
38022;BME280;23832;43.216;27.946;2023-04-12T05:27:47;99378.66;;;14.57;100.00
38022;BME280;23832;43.216;27.946;2023-04-12T05:29:49;99375.19;;;14.57;100.00
38022;BME280;23832;43.216;27.946;2023-04-12T05:31:51;99362.38;;;14.54;100.00
38022;BME280;23832;43.216;27.946;2023-04-12T05:33:54;99373.22;;;14.52;100.00
38022;BME280;23832;43.216;27.946;2023-04-12T05:35:56;99379.00;;;14.61;100.00
38022;BME280;23832;43.216;27.946;2023-04-12T05:37:58;99372.91;;;14.84;100.00
38022;BME280;23832;43.216;27.946;2023-04-12T05:40:00;99366.09;;;14.88;100.00
38022;BME280;23832;43.216;27.946;2023-04-12T05:42:01;99365.88;;;15.01;100.00
38022;BME280;23832;43.216;27.946;2023-04-12T05:44:03;99367.25;;;14.92;100.00
38022;BME280;23832;43.216;27.946;2023-04-12T05:46:05;99368.53;;;15.01;100.00
38022;BME280;23832;43.216;27.946;2023-04-12T05:48:08;99368.59;;;15.18;100.00
38022;BME280;23832;43.216;27.946;2023-04-12T05:50:11;99366.75;;;15.07;100.00
38022;BME280;23832;43.216;27.946;2023-04-12T05:52:13;99378.31;;;14.89;100.00
38022;BME280;23832;43.216;27.946;2023-04-12T05:54:15;99374.50;;;15.08;100.00
38022;BME280;23832;43.216;27.946;2023-04-12T05:56:20;99373.91;;;15.18;100.00
38022;BME280;23832;43.216;27.946;2023-04-12T05:58:21;99370.44;;;15.29;100.00
38022;BME280;23832;43.216;27.946;2023-04-12T06:00:23;99365.44;;;15.32;100.00
38022;BME280;23832;43.216;27.946;2023-04-12T06:02:25;99353.53;;;15.47;100.00
38022;BME280;23832;43.216;27.946;2023-04-12T06:04:27;99353.25;;;15.60;100.00
38022;BME280;23832;43.216;27.946;2023-04-12T06:06:30;99352.94;;;15.85;100.00
38022;BME280;23832;43.216;27.946;2023-04-12T06:08:32;99350.66;;;16.05;100.00
38022;BME280;23832;43.216;27.946;2023-04-12T06:10:34;99337.34;;;16.05;100.00
38022;BME280;23832;43.216;27.946;2023-04-12T06:12:36;99348.13;;;15.99;100.00
38022;BME280;23832;43.216;27.946;2023-04-12T06:14:37;99353.00;;;16.02;100.00
38022;BME280;23832;43.216;27.946;2023-04-12T06:16:39;99352.66;;;16.15;100.00
38022;BME280;23832;43.216;27.946;2023-04-12T06:18:40;99357.00;;;16.04;100.00
38022;BME280;23832;43.216;27.946;2023-04-12T06:20:42;99363.91;;;15.88;100.00
38022;BME280;23832;43.216;27.946;2023-04-12T06:22:46;99364.81;;;15.94;100.00
38022;BME280;23832;43.216;27.946;2023-04-12T06:24:48;99371.03;;;16.16;100.00
38022;BME280;23832;43.216;27.946;2023-04-12T06:26:50;99371.97;;;15.94;100.00
38022;BME280;23832;43.216;27.946;2023-04-12T06:28:52;99369.91;;;16.12;100.00
38022;BME280;23832;43.216;27.946;2023-04-12T06:30:53;99373.56;;;16.23;100.00
38022;BME280;23832;43.216;27.946;2023-04-12T06:32:55;99379.59;;;16.35;100.00
38022;BME280;23832;43.216;27.946;2023-04-12T06:34:56;99369.94;;;16.46;100.00
38022;BME280;23832;43.216;27.946;2023-04-12T06:36:58;99358.81;;;16.32;100.00
38022;BME280;23832;43.216;27.946;2023-04-12T06:39:02;99364.00;;;16.72;100.00
38022;BME280;23832;43.216;27.946;2023-04-12T06:41:04;99368.56;;;16.94;100.00
38022;BME280;23832;43.216;27.946;2023-04-12T06:43:06;99368.16;;;17.02;100.00
38022;BME280;23832;43.216;27.946;2023-04-12T06:45:08;99369.59;;;17.10;100.00
38022;BME280;23832;43.216;27.946;2023-04-12T06:47:10;99367.66;;;17.05;100.00
38022;BME280;23832;43.216;27.946;2023-04-12T06:49:11;99371.59;;;16.81;100.00
38022;BME280;23832;43.216;27.946;2023-04-12T06:51:13;99378.00;;;16.68;100.00
38022;BME280;23832;43.216;27.946;2023-04-12T06:53:15;99382.84;;;16.71;100.00
38022;BME280;23832;43.216;27.946;2023-04-12T06:55:19;99379.78;;;16.96;100.00
38022;BME280;23832;43.216;27.946;2023-04-12T06:57:20;99381.56;;;16.90;100.00
38022;BME280;23832;43.216;27.946;2023-04-12T06:59:22;99383.72;;;16.60;100.00
38022;BME280;23832;43.216;27.946;2023-04-12T07:01:24;99382.69;;;16.27;100.00
38022;BME280;23832;43.216;27.946;2023-04-12T07:03:25;99383.72;;;16.60;100.00
38022;BME280;23832;43.216;27.946;2023-04-12T07:05:30;99388.56;;;16.29;100.00
38022;BME280;23832;43.216;27.946;2023-04-12T07:07:32;99382.22;;;16.64;100.00
38022;BME280;23832;43.216;27.946;2023-04-12T07:09:34;99384.44;;;16.89;100.00
38022;BME280;23832;43.216;27.946;2023-04-12T07:11:37;99391.88;;;17.03;100.00
38022;BME280;23832;43.216;27.946;2023-04-12T07:13:38;99386.94;;;17.34;100.00
38022;BME280;23832;43.216;27.946;2023-04-12T07:15:40;99390.94;;;17.53;99.53
38022;BME280;23832;43.216;27.946;2023-04-12T07:17:42;99402.38;;;17.54;99.98
38022;BME280;23832;43.216;27.946;2023-04-12T07:19:44;99395.81;;;17.40;100.00
38022;BME280;23832;43.216;27.946;2023-04-12T07:21:46;99402.31;;;17.49;100.00
38022;BME280;23832;43.216;27.946;2023-04-12T07:23:48;99402.00;;;17.67;97.94
38022;BME280;23832;43.216;27.946;2023-04-12T07:25:50;99399.47;;;17.99;95.19
38022;BME280;23832;43.216;27.946;2023-04-12T07:27:53;99399.63;;;19.21;85.92
38022;BME280;23832;43.216;27.946;2023-04-12T07:29:55;99388.38;;;19.76;78.44
38022;BME280;23832;43.216;27.946;2023-04-12T07:31:58;99387.34;;;19.82;78.28
38022;BME280;23832;43.216;27.946;2023-04-12T07:34:00;99393.78;;;19.92;75.73
38022;BME280;23832;43.216;27.946;2023-04-12T07:36:02;99378.78;;;19.85;73.86
38022;BME280;23832;43.216;27.946;2023-04-12T07:38:04;99379.25;;;19.67;72.48
38022;BME280;23832;43.216;27.946;2023-04-12T07:40:06;99393.84;;;20.32;69.94
38022;BME280;23832;43.216;27.946;2023-04-12T07:42:08;99390.88;;;20.39;69.87
38022;BME280;23832;43.216;27.946;2023-04-12T07:44:11;99392.25;;;20.31;69.53
38022;BME280;23832;43.216;27.946;2023-04-12T07:46:13;99387.66;;;20.22;70.58
38022;BME280;23832;43.216;27.946;2023-04-12T07:48:15;99381.81;;;20.65;69.38
38022;BME280;23832;43.216;27.946;2023-04-12T07:50:17;99394.34;;;21.01;65.67
38022;BME280;23832;43.216;27.946;2023-04-12T07:52:19;99387.47;;;20.69;65.36
38022;BME280;23832;43.216;27.946;2023-04-12T07:54:20;99399.69;;;20.09;66.93
38022;BME280;23832;43.216;27.946;2023-04-12T07:56:22;99393.22;;;19.79;69.81
38022;BME280;23832;43.216;27.946;2023-04-12T07:58:24;99394.63;;;20.07;68.73
38022;BME280;23832;43.216;27.946;2023-04-12T08:00:28;99389.06;;;20.45;65.78
38022;BME280;23832;43.216;27.946;2023-04-12T08:02:31;99391.72;;;20.24;66.94
38022;BME280;23832;43.216;27.946;2023-04-12T08:04:33;99393.31;;;20.66;65.72
38022;BME280;23832;43.216;27.946;2023-04-12T08:06:35;99389.78;;;21.01;64.07
38022;BME280;23832;43.216;27.946;2023-04-12T08:08:37;99388.72;;;21.82;62.84
38022;BME280;23832;43.216;27.946;2023-04-12T08:10:39;99381.44;;;21.93;60.78
38022;BME280;23832;43.216;27.946;2023-04-12T08:12:40;99384.47;;;22.88;57.58
38022;BME280;23832;43.216;27.946;2023-04-12T08:14:42;99379.34;;;22.29;56.54
38022;BME280;23832;43.216;27.946;2023-04-12T08:16:46;99387.16;;;21.71;58.84
38022;BME280;23832;43.216;27.946;2023-04-12T08:18:48;99382.91;;;21.65;60.60
38022;BME280;23832;43.216;27.946;2023-04-12T08:20:50;99383.53;;;23.03;55.49
38022;BME280;23832;43.216;27.946;2023-04-12T08:22:52;99382.19;;;23.72;53.22
38022;BME280;23832;43.216;27.946;2023-04-12T08:24:54;99381.13;;;23.02;53.39
38022;BME280;23832;43.216;27.946;2023-04-12T08:26:55;99389.41;;;23.05;54.08
38022;BME280;23832;43.216;27.946;2023-04-12T08:28:57;99385.81;;;23.39;52.93
38022;BME280;23832;43.216;27.946;2023-04-12T08:30:59;99378.00;;;22.89;53.65
38022;BME280;23832;43.216;27.946;2023-04-12T08:33:02;99391.13;;;22.62;54.49
38022;BME280;23832;43.216;27.946;2023-04-12T08:35:04;99380.97;;;22.25;54.81
38022;BME280;23832;43.216;27.946;2023-04-12T08:37:06;99382.00;;;21.30;57.51
38022;BME280;23832;43.216;27.946;2023-04-12T08:39:08;99381.72;;;21.16;57.73
38022;BME280;23832;43.216;27.946;2023-04-12T08:41:10;99378.84;;;20.82;59.10
38022;BME280;23832;43.216;27.946;2023-04-12T08:43:12;99386.88;;;20.16;62.54
38022;BME280;23832;43.216;27.946;2023-04-12T08:45:13;99385.78;;;20.02;64.09
38022;BME280;23832;43.216;27.946;2023-04-12T08:47:15;99394.44;;;20.50;62.21
38022;BME280;23832;43.216;27.946;2023-04-12T08:49:19;99392.47;;;19.99;63.90
38022;BME280;23832;43.216;27.946;2023-04-12T08:51:24;99400.66;;;19.67;66.19
38022;BME280;23832;43.216;27.946;2023-04-12T08:53:26;99397.31;;;19.40;68.42
38022;BME280;23832;43.216;27.946;2023-04-12T08:55:28;99402.69;;;19.50;69.83
38022;BME280;23832;43.216;27.946;2023-04-12T08:57:30;99397.84;;;19.37;71.25
38022;BME280;23832;43.216;27.946;2023-04-12T08:59:35;99387.22;;;19.52;71.34
38022;BME280;23832;43.216;27.946;2023-04-12T09:01:39;99398.78;;;19.68;72.18
38022;BME280;23832;43.216;27.946;2023-04-12T09:03:41;99392.72;;;19.88;71.81
38022;BME280;23832;43.216;27.946;2023-04-12T09:05:44;99391.97;;;20.18;71.22
38022;BME280;23832;43.216;27.946;2023-04-12T09:07:46;99383.63;;;19.94;71.21
38022;BME280;23832;43.216;27.946;2023-04-12T09:09:48;99389.97;;;19.67;71.41
38022;BME280;23832;43.216;27.946;2023-04-12T09:11:51;99382.63;;;19.47;71.57
38022;BME280;23832;43.216;27.946;2023-04-12T09:14:19;99389.56;;;18.91;76.36
38022;BME280;23832;43.216;27.946;2023-04-12T09:16:35;99392.91;;;19.13;75.42
38022;BME280;23832;43.216;27.946;2023-04-12T09:18:46;99393.16;;;19.64;72.80
38022;BME280;23832;43.216;27.946;2023-04-12T09:20:51;99385.97;;;19.75;71.47
38022;BME280;23832;43.216;27.946;2023-04-12T09:23:16;99394.88;;;20.11;68.05
38022;BME280;23832;43.216;27.946;2023-04-12T09:25:19;99394.69;;;19.55;70.19
38022;BME280;23832;43.216;27.946;2023-04-12T09:27:44;99407.38;;;19.22;73.53
38022;BME280;23832;43.216;27.946;2023-04-12T09:30:05;99401.31;;;18.90;80.94
38022;BME280;23832;43.216;27.946;2023-04-12T09:32:08;99403.34;;;18.73;84.67
38022;BME280;23832;43.216;27.946;2023-04-12T09:34:09;99402.56;;;18.77;87.88
38022;BME280;23832;43.216;27.946;2023-04-12T09:36:13;99412.28;;;18.61;91.34
38022;BME280;23832;43.216;27.946;2023-04-12T09:38:18;99404.84;;;18.63;93.42
38022;BME280;23832;43.216;27.946;2023-04-12T09:40:22;99402.75;;;18.65;96.91
38022;BME280;23832;43.216;27.946;2023-04-12T09:42:24;99415.22;;;18.33;100.00
38022;BME280;23832;43.216;27.946;2023-04-12T09:44:28;99414.69;;;18.31;100.00
38022;BME280;23832;43.216;27.946;2023-04-12T09:46:31;99411.84;;;18.10;100.00
38022;BME280;23832;43.216;27.946;2023-04-12T09:48:35;99412.34;;;18.07;100.00
38022;BME280;23832;43.216;27.946;2023-04-12T09:50:38;99412.47;;;18.23;100.00
38022;BME280;23832;43.216;27.946;2023-04-12T09:52:44;99406.75;;;18.68;100.00
38022;BME280;23832;43.216;27.946;2023-04-12T09:54:46;99405.91;;;19.47;100.00
38022;BME280;23832;43.216;27.946;2023-04-12T09:56:48;99411.63;;;19.66;99.13
38022;BME280;23832;43.216;27.946;2023-04-12T09:58:50;99407.72;;;19.36;100.00
38022;BME280;23832;43.216;27.946;2023-04-12T10:00:54;99409.38;;;19.47;97.45
38022;BME280;23832;43.216;27.946;2023-04-12T10:02:57;99413.81;;;19.26;100.00
38022;BME280;23832;43.216;27.946;2023-04-12T10:04:59;99412.38;;;19.56;98.65
38022;BME280;23832;43.216;27.946;2023-04-12T10:07:01;99409.00;;;19.81;98.20
38022;BME280;23832;43.216;27.946;2023-04-12T10:09:05;99424.03;;;20.12;93.05
38022;BME280;23832;43.216;27.946;2023-04-12T10:11:08;99408.59;;;20.45;89.12
38022;BME280;23832;43.216;27.946;2023-04-12T10:13:11;99414.44;;;20.17;89.61
38022;BME280;23832;43.216;27.946;2023-04-12T10:15:13;99413.84;;;19.94;90.89
38022;BME280;23832;43.216;27.946;2023-04-12T10:17:16;99419.69;;;19.81;92.18
38022;BME280;23832;43.216;27.946;2023-04-12T10:19:21;99420.09;;;19.52;94.46
38022;BME280;23832;43.216;27.946;2023-04-12T10:21:24;99424.53;;;19.32;97.63
38022;BME280;23832;43.216;27.946;2023-04-12T10:23:28;99425.09;;;18.91;100.00
38022;BME280;23832;43.216;27.946;2023-04-12T10:25:32;99423.28;;;18.38;100.00
38022;BME280;23832;43.216;27.946;2023-04-12T10:27:43;99432.03;;;18.60;100.00
38022;BME280;23832;43.216;27.946;2023-04-12T10:29:45;99430.84;;;18.73;100.00
38022;BME280;23832;43.216;27.946;2023-04-12T10:31:50;99431.13;;;18.50;100.00
38022;BME280;23832;43.216;27.946;2023-04-12T10:33:53;99432.72;;;18.46;100.00
38022;BME280;23832;43.216;27.946;2023-04-12T10:36:02;99433.06;;;18.00;100.00
38022;BME280;23832;43.216;27.946;2023-04-12T10:38:07;99423.50;;;18.04;100.00